sensor_id;sensor_type;location;lat;lon;timestamp;temperature;humidity
5808;DHT22;2930;42.678;23.312;2023-04-01T00:01:56;12.30;75.70
5808;DHT22;2930;42.678;23.312;2023-04-01T00:04:21;12.30;75.80
5808;DHT22;2930;42.678;23.312;2023-04-01T00:06:47;12.30;75.90
5808;DHT22;2930;42.678;23.312;2023-04-01T00:09:13;12.30;75.90
5808;DHT22;2930;42.678;23.312;2023-04-01T00:11:39;12.20;75.80
5808;DHT22;2930;42.678;23.312;2023-04-01T00:14:07;12.20;75.90
5808;DHT22;2930;42.678;23.312;2023-04-01T00:16:33;12.20;76.00
5808;DHT22;2930;42.678;23.312;2023-04-01T00:18:59;12.20;76.00
5808;DHT22;2930;42.678;23.312;2023-04-01T00:21:25;12.20;76.20
5808;DHT22;2930;42.678;23.312;2023-04-01T00:23:51;12.20;76.20
5808;DHT22;2930;42.678;23.312;2023-04-01T00:26:17;12.20;76.30
5808;DHT22;2930;42.678;23.312;2023-04-01T00:28:46;12.20;76.20
5808;DHT22;2930;42.678;23.312;2023-04-01T00:31:12;12.20;75.80
5808;DHT22;2930;42.678;23.312;2023-04-01T00:33:39;12.10;75.30
5808;DHT22;2930;42.678;23.312;2023-04-01T00:36:17;12.10;75.00
5808;DHT22;2930;42.678;23.312;2023-04-01T00:38:43;12.00;74.90
5808;DHT22;2930;42.678;23.312;2023-04-01T00:41:11;12.00;75.40
5808;DHT22;2930;42.678;23.312;2023-04-01T00:43:46;12.00;75.50
5808;DHT22;2930;42.678;23.312;2023-04-01T00:46:12;11.90;75.80
5808;DHT22;2930;42.678;23.312;2023-04-01T00:48:41;11.90;76.50
5808;DHT22;2930;42.678;23.312;2023-04-01T00:51:15;11.90;76.60
5808;DHT22;2930;42.678;23.312;2023-04-01T00:53:45;11.80;76.70
5808;DHT22;2930;42.678;23.312;2023-04-01T00:56:16;11.80;77.10
5808;DHT22;2930;42.678;23.312;2023-04-01T00:58:56;11.70;77.10
5808;DHT22;2930;42.678;23.312;2023-04-01T01:01:24;11.70;77.00
5808;DHT22;2930;42.678;23.312;2023-04-01T01:03:49;11.70;77.00
5808;DHT22;2930;42.678;23.312;2023-04-01T01:06:34;11.60;76.30
5808;DHT22;2930;42.678;23.312;2023-04-01T01:12:20;11.50;76.10
5808;DHT22;2930;42.678;23.312;2023-04-01T01:15:12;11.40;77.40
5808;DHT22;2930;42.678;23.312;2023-04-01T01:18:03;11.30;77.60
5808;DHT22;2930;42.678;23.312;2023-04-01T01:31:37;11.00;78.00
5808;DHT22;2930;42.678;23.312;2023-04-01T01:34:34;11.10;77.60
5808;DHT22;2930;42.678;23.312;2023-04-01T01:37:05;11.00;78.60
5808;DHT22;2930;42.678;23.312;2023-04-01T01:39:34;11.00;78.70
5808;DHT22;2930;42.678;23.312;2023-04-01T01:42:04;10.90;78.70
5808;DHT22;2930;42.678;23.312;2023-04-01T01:44:31;10.90;78.60
5808;DHT22;2930;42.678;23.312;2023-04-01T01:46:59;10.80;78.50
5808;DHT22;2930;42.678;23.312;2023-04-01T01:49:27;10.80;78.20
5808;DHT22;2930;42.678;23.312;2023-04-01T01:51:56;10.90;77.70
5808;DHT22;2930;42.678;23.312;2023-04-01T01:54:21;10.90;77.40
5808;DHT22;2930;42.678;23.312;2023-04-01T01:56:51;10.90;77.60
5808;DHT22;2930;42.678;23.312;2023-04-01T01:59:19;10.90;77.70
5808;DHT22;2930;42.678;23.312;2023-04-01T02:01:49;11.00;77.90
5808;DHT22;2930;42.678;23.312;2023-04-01T02:04:17;11.00;78.20
5808;DHT22;2930;42.678;23.312;2023-04-01T02:06:48;11.00;78.40
5808;DHT22;2930;42.678;23.312;2023-04-01T02:09:15;11.00;77.90
5808;DHT22;2930;42.678;23.312;2023-04-01T02:11:47;11.00;77.80
5808;DHT22;2930;42.678;23.312;2023-04-01T02:16:51;11.10;76.90
5808;DHT22;2930;42.678;23.312;2023-04-01T02:19:20;11.20;77.20
5808;DHT22;2930;42.678;23.312;2023-04-01T02:21:51;11.20;77.30
5808;DHT22;2930;42.678;23.312;2023-04-01T02:24:19;11.20;77.30
5808;DHT22;2930;42.678;23.312;2023-04-01T02:26:49;11.30;77.60
5808;DHT22;2930;42.678;23.312;2023-04-01T02:29:18;11.30;77.60
5808;DHT22;2930;42.678;23.312;2023-04-01T02:31:45;11.30;77.50
5808;DHT22;2930;42.678;23.312;2023-04-01T02:34:11;11.30;77.60
5808;DHT22;2930;42.678;23.312;2023-04-01T02:36:37;11.30;77.60
5808;DHT22;2930;42.678;23.312;2023-04-01T02:39:03;11.30;77.70
5808;DHT22;2930;42.678;23.312;2023-04-01T02:41:30;11.30;78.00
5808;DHT22;2930;42.678;23.312;2023-04-01T02:43:57;11.30;77.80
5808;DHT22;2930;42.678;23.312;2023-04-01T02:46:24;11.40;77.60
5808;DHT22;2930;42.678;23.312;2023-04-01T02:48:50;11.40;77.50
5808;DHT22;2930;42.678;23.312;2023-04-01T02:51:15;11.40;77.80
5808;DHT22;2930;42.678;23.312;2023-04-01T02:53:41;11.40;78.00
5808;DHT22;2930;42.678;23.312;2023-04-01T02:56:07;11.40;77.80
5808;DHT22;2930;42.678;23.312;2023-04-01T02:58:32;11.40;77.80
5808;DHT22;2930;42.678;23.312;2023-04-01T03:00:58;11.40;78.00
5808;DHT22;2930;42.678;23.312;2023-04-01T03:03:24;11.50;78.00
5808;DHT22;2930;42.678;23.312;2023-04-01T03:05:50;11.40;78.10
5808;DHT22;2930;42.678;23.312;2023-04-01T03:08:16;11.50;78.30
5808;DHT22;2930;42.678;23.312;2023-04-01T03:10:41;11.50;77.40
5808;DHT22;2930;42.678;23.312;2023-04-01T03:13:07;11.50;77.80
5808;DHT22;2930;42.678;23.312;2023-04-01T03:15:33;11.50;77.90
5808;DHT22;2930;42.678;23.312;2023-04-01T03:17:58;11.50;77.90
5808;DHT22;2930;42.678;23.312;2023-04-01T03:20:24;11.50;77.80
5808;DHT22;2930;42.678;23.312;2023-04-01T03:22:50;11.50;78.00
5808;DHT22;2930;42.678;23.312;2023-04-01T03:25:15;11.50;78.00
5808;DHT22;2930;42.678;23.312;2023-04-01T03:27:41;11.50;77.60
5808;DHT22;2930;42.678;23.312;2023-04-01T03:30:07;11.60;78.20
5808;DHT22;2930;42.678;23.312;2023-04-01T03:32:33;11.50;78.20
5808;DHT22;2930;42.678;23.312;2023-04-01T03:34:59;11.60;77.50
5808;DHT22;2930;42.678;23.312;2023-04-01T03:37:25;11.50;78.00
5808;DHT22;2930;42.678;23.312;2023-04-01T03:39:50;11.50;78.00
5808;DHT22;2930;42.678;23.312;2023-04-01T03:42:17;11.50;77.80
5808;DHT22;2930;42.678;23.312;2023-04-01T03:44:43;11.50;78.10
5808;DHT22;2930;42.678;23.312;2023-04-01T03:47:08;11.50;78.50
5808;DHT22;2930;42.678;23.312;2023-04-01T03:49:35;11.40;78.70
5808;DHT22;2930;42.678;23.312;2023-04-01T03:52:01;11.40;79.10
5808;DHT22;2930;42.678;23.312;2023-04-01T03:54:26;11.40;79.10
5808;DHT22;2930;42.678;23.312;2023-04-01T03:56:52;11.40;79.50
5808;DHT22;2930;42.678;23.312;2023-04-01T03:59:18;11.30;79.70
5808;DHT22;2930;42.678;23.312;2023-04-01T04:01:43;11.30;79.80
5808;DHT22;2930;42.678;23.312;2023-04-01T04:04:11;11.30;80.00
5808;DHT22;2930;42.678;23.312;2023-04-01T04:06:38;11.40;79.80
5808;DHT22;2930;42.678;23.312;2023-04-01T04:09:04;11.40;79.80
5808;DHT22;2930;42.678;23.312;2023-04-01T04:11:31;11.40;80.00
5808;DHT22;2930;42.678;23.312;2023-04-01T04:13:58;11.40;80.10
5808;DHT22;2930;42.678;23.312;2023-04-01T04:16:23;11.40;80.10
5808;DHT22;2930;42.678;23.312;2023-04-01T04:18:49;11.40;80.10
5808;DHT22;2930;42.678;23.312;2023-04-01T04:21:16;11.40;80.00
5808;DHT22;2930;42.678;23.312;2023-04-01T04:23:42;11.40;79.90
5808;DHT22;2930;42.678;23.312;2023-04-01T04:26:11;11.40;79.90
5808;DHT22;2930;42.678;23.312;2023-04-01T04:28:36;11.40;79.50
5808;DHT22;2930;42.678;23.312;2023-04-01T04:31:03;11.40;79.30
5808;DHT22;2930;42.678;23.312;2023-04-01T04:33:31;11.40;79.10
5808;DHT22;2930;42.678;23.312;2023-04-01T04:35:57;11.40;78.90
5808;DHT22;2930;42.678;23.312;2023-04-01T04:38:24;11.40;78.50
5808;DHT22;2930;42.678;23.312;2023-04-01T04:40:50;11.30;78.50
5808;DHT22;2930;42.678;23.312;2023-04-01T04:43:17;11.30;78.00
5808;DHT22;2930;42.678;23.312;2023-04-01T04:45:43;11.40;77.30
5808;DHT22;2930;42.678;23.312;2023-04-01T04:48:10;11.40;76.50
5808;DHT22;2930;42.678;23.312;2023-04-01T04:50:40;11.40;77.00
5808;DHT22;2930;42.678;23.312;2023-04-01T04:53:05;11.30;77.30
5808;DHT22;2930;42.678;23.312;2023-04-01T04:55:31;11.30;77.60
5808;DHT22;2930;42.678;23.312;2023-04-01T04:57:57;11.30;77.70
5808;DHT22;2930;42.678;23.312;2023-04-01T05:00:22;11.30;77.10
5808;DHT22;2930;42.678;23.312;2023-04-01T05:02:48;11.40;76.60
5808;DHT22;2930;42.678;23.312;2023-04-01T05:05:14;11.30;76.90
5808;DHT22;2930;42.678;23.312;2023-04-01T05:07:39;11.20;77.10
5808;DHT22;2930;42.678;23.312;2023-04-01T05:10:05;11.20;77.30
5808;DHT22;2930;42.678;23.312;2023-04-01T05:12:31;11.10;77.20
5808;DHT22;2930;42.678;23.312;2023-04-01T05:15:02;11.10;76.70
5808;DHT22;2930;42.678;23.312;2023-04-01T05:17:28;11.00;76.80
5808;DHT22;2930;42.678;23.312;2023-04-01T05:19:54;11.00;76.80
5808;DHT22;2930;42.678;23.312;2023-04-01T05:22:19;10.90;76.90
5808;DHT22;2930;42.678;23.312;2023-04-01T05:24:45;10.90;77.00
5808;DHT22;2930;42.678;23.312;2023-04-01T05:27:11;10.80;77.30
5808;DHT22;2930;42.678;23.312;2023-04-01T05:29:37;10.80;77.50
5808;DHT22;2930;42.678;23.312;2023-04-01T05:32:02;10.70;77.70
5808;DHT22;2930;42.678;23.312;2023-04-01T05:34:28;10.70;77.90
5808;DHT22;2930;42.678;23.312;2023-04-01T05:36:53;10.70;78.10
5808;DHT22;2930;42.678;23.312;2023-04-01T05:39:19;10.70;77.70
5808;DHT22;2930;42.678;23.312;2023-04-01T05:41:45;10.70;78.30
5808;DHT22;2930;42.678;23.312;2023-04-01T05:44:12;10.70;78.50
5808;DHT22;2930;42.678;23.312;2023-04-01T05:46:37;10.80;78.70
5808;DHT22;2930;42.678;23.312;2023-04-01T05:49:03;10.80;78.70
5808;DHT22;2930;42.678;23.312;2023-04-01T05:51:28;10.90;78.60
5808;DHT22;2930;42.678;23.312;2023-04-01T05:53:54;10.90;78.70
5808;DHT22;2930;42.678;23.312;2023-04-01T05:56:20;11.00;78.20
5808;DHT22;2930;42.678;23.312;2023-04-01T05:58:51;11.10;78.20
5808;DHT22;2930;42.678;23.312;2023-04-01T06:01:17;11.30;77.80
5808;DHT22;2930;42.678;23.312;2023-04-01T06:03:44;11.40;78.00
5808;DHT22;2930;42.678;23.312;2023-04-01T06:06:14;11.60;77.90
5808;DHT22;2930;42.678;23.312;2023-04-01T06:08:41;11.80;77.30
5808;DHT22;2930;42.678;23.312;2023-04-01T06:20:00;12.70;73.90
5808;DHT22;2930;42.678;23.312;2023-04-01T06:50:26;14.60;68.20
5808;DHT22;2930;42.678;23.312;2023-04-01T06:57:52;14.70;68.90
5808;DHT22;2930;42.678;23.312;2023-04-01T07:02:58;14.70;68.80
5808;DHT22;2930;42.678;23.312;2023-04-01T07:05:31;14.70;68.80
5808;DHT22;2930;42.678;23.312;2023-04-01T07:08:00;14.70;68.50
5808;DHT22;2930;42.678;23.312;2023-04-01T07:10:44;14.80;68.70
5808;DHT22;2930;42.678;23.312;2023-04-01T07:13:21;14.80;68.70
5808;DHT22;2930;42.678;23.312;2023-04-01T07:21:44;15.00;68.90
5808;DHT22;2930;42.678;23.312;2023-04-01T07:24:23;15.00;69.00
5808;DHT22;2930;42.678;23.312;2023-04-01T07:26:55;15.00;69.20
5808;DHT22;2930;42.678;23.312;2023-04-01T07:29:21;15.10;69.10
5808;DHT22;2930;42.678;23.312;2023-04-01T07:37:17;15.40;68.40
5808;DHT22;2930;42.678;23.312;2023-04-01T07:48:02;15.90;67.50
5808;DHT22;2930;42.678;23.312;2023-04-01T07:50:31;16.00;67.50
5808;DHT22;2930;42.678;23.312;2023-04-01T08:09:32;15.90;67.40
5808;DHT22;2930;42.678;23.312;2023-04-01T08:12:23;15.90;67.20
5808;DHT22;2930;42.678;23.312;2023-04-01T08:25:06;16.30;66.90
5808;DHT22;2930;42.678;23.312;2023-04-01T08:27:48;16.40;66.80
5808;DHT22;2930;42.678;23.312;2023-04-01T08:30:28;16.50;66.30
5808;DHT22;2930;42.678;23.312;2023-04-01T08:35:46;16.90;66.10
5808;DHT22;2930;42.678;23.312;2023-04-01T08:38:38;17.10;65.60
5808;DHT22;2930;42.678;23.312;2023-04-01T08:46:54;18.10;64.10
5808;DHT22;2930;42.678;23.312;2023-04-01T08:55:14;20.60;60.40
5808;DHT22;2930;42.678;23.312;2023-04-01T08:57:50;21.80;58.50
5808;DHT22;2930;42.678;23.312;2023-04-01T09:26:44;24.00;52.80
5808;DHT22;2930;42.678;23.312;2023-04-01T09:38:23;22.90;52.70
5808;DHT22;2930;42.678;23.312;2023-04-01T09:40:57;22.70;53.30
5808;DHT22;2930;42.678;23.312;2023-04-01T09:57:08;23.30;53.20
5808;DHT22;2930;42.678;23.312;2023-04-01T10:08:45;25.10;50.10
5808;DHT22;2930;42.678;23.312;2023-04-01T10:31:46;25.00;50.90
5808;DHT22;2930;42.678;23.312;2023-04-01T10:46:12;23.50;52.20
5808;DHT22;2930;42.678;23.312;2023-04-01T10:49:05;23.20;52.50
5808;DHT22;2930;42.678;23.312;2023-04-01T11:14:30;21.30;56.10
5808;DHT22;2930;42.678;23.312;2023-04-01T11:27:50;20.60;56.70
5808;DHT22;2930;42.678;23.312;2023-04-01T11:44:23;17.50;62.30
5808;DHT22;2930;42.678;23.312;2023-04-01T12:01:10;14.30;79.50
5808;DHT22;2930;42.678;23.312;2023-04-01T12:07:21;13.60;80.50
5808;DHT22;2930;42.678;23.312;2023-04-01T12:12:40;13.10;83.00
5808;DHT22;2930;42.678;23.312;2023-04-01T12:18:05;12.80;85.00
5808;DHT22;2930;42.678;23.312;2023-04-01T12:20:49;12.90;86.40
5808;DHT22;2930;42.678;23.312;2023-04-01T12:32:31;14.60;84.70
5808;DHT22;2930;42.678;23.312;2023-04-01T12:35:24;14.90;82.70
5808;DHT22;2930;42.678;23.312;2023-04-01T12:41:09;15.00;83.60
5808;DHT22;2930;42.678;23.312;2023-04-01T12:44:04;15.00;83.30
5808;DHT22;2930;42.678;23.312;2023-04-01T12:47:12;14.90;82.90
5808;DHT22;2930;42.678;23.312;2023-04-01T12:50:13;14.70;83.60
5808;DHT22;2930;42.678;23.312;2023-04-01T12:55:48;14.50;85.10
5808;DHT22;2930;42.678;23.312;2023-04-01T12:58:45;14.40;85.20
5808;DHT22;2930;42.678;23.312;2023-04-01T13:15:02;14.10;86.00
5808;DHT22;2930;42.678;23.312;2023-04-01T13:17:45;14.20;86.10
5808;DHT22;2930;42.678;23.312;2023-04-01T13:20:35;14.40;86.00
5808;DHT22;2930;42.678;23.312;2023-04-01T13:26:00;15.70;87.50
5808;DHT22;2930;42.678;23.312;2023-04-01T13:28:40;16.60;87.60
5808;DHT22;2930;42.678;23.312;2023-04-01T13:37:03;19.60;73.60
5808;DHT22;2930;42.678;23.312;2023-04-01T13:42:21;20.90;70.60
5808;DHT22;2930;42.678;23.312;2023-04-01T13:45:02;21.50;69.70
5808;DHT22;2930;42.678;23.312;2023-04-01T13:56:33;23.10;65.40
5808;DHT22;2930;42.678;23.312;2023-04-01T14:15:26;25.50;56.50
5808;DHT22;2930;42.678;23.312;2023-04-01T14:32:02;25.00;50.10
5808;DHT22;2930;42.678;23.312;2023-04-01T14:48:26;23.10;55.00
5808;DHT22;2930;42.678;23.312;2023-04-01T14:50:55;23.40;55.60
5808;DHT22;2930;42.678;23.312;2023-04-01T14:53:34;24.00;57.90
5808;DHT22;2930;42.678;23.312;2023-04-01T14:56:04;24.50;57.70
5808;DHT22;2930;42.678;23.312;2023-04-01T14:58:49;24.90;56.40
5808;DHT22;2930;42.678;23.312;2023-04-01T15:17:41;26.10;55.40
5808;DHT22;2930;42.678;23.312;2023-04-01T15:36:36;20.90;63.80
5808;DHT22;2930;42.678;23.312;2023-04-01T15:41:56;19.90;65.60
5808;DHT22;2930;42.678;23.312;2023-04-01T15:44:46;19.40;66.40
5808;DHT22;2930;42.678;23.312;2023-04-01T15:52:55;16.90;68.50
5808;DHT22;2930;42.678;23.312;2023-04-01T15:55:35;15.10;71.40
5808;DHT22;2930;42.678;23.312;2023-04-01T15:58:31;14.70;73.80
5808;DHT22;2930;42.678;23.312;2023-04-01T16:20:25;9.90;96.70
5808;DHT22;2930;42.678;23.312;2023-04-01T16:23:10;9.70;97.20
5808;DHT22;2930;42.678;23.312;2023-04-01T16:25:41;9.60;97.60
5808;DHT22;2930;42.678;23.312;2023-04-01T16:43:55;9.20;97.50
5808;DHT22;2930;42.678;23.312;2023-04-01T16:54:36;8.60;95.10
5808;DHT22;2930;42.678;23.312;2023-04-01T16:59:37;8.50;95.70
5808;DHT22;2930;42.678;23.312;2023-04-01T17:02:12;8.60;95.10
5808;DHT22;2930;42.678;23.312;2023-04-01T17:05:01;8.50;94.20
5808;DHT22;2930;42.678;23.312;2023-04-01T17:23:45;8.50;93.50
5808;DHT22;2930;42.678;23.312;2023-04-01T17:45:58;8.10;93.00
5808;DHT22;2930;42.678;23.312;2023-04-01T17:51:33;8.20;93.60
5808;DHT22;2930;42.678;23.312;2023-04-01T17:57:24;8.20;92.80
5808;DHT22;2930;42.678;23.312;2023-04-01T18:05:42;8.30;93.10
5808;DHT22;2930;42.678;23.312;2023-04-01T18:13:58;8.20;93.60
5808;DHT22;2930;42.678;23.312;2023-04-01T18:19:03;8.30;93.20
5808;DHT22;2930;42.678;23.312;2023-04-01T18:21:50;8.30;93.00
5808;DHT22;2930;42.678;23.312;2023-04-01T18:24:40;8.30;92.90
5808;DHT22;2930;42.678;23.312;2023-04-01T18:27:23;8.30;92.70
5808;DHT22;2930;42.678;23.312;2023-04-01T18:29:51;8.40;92.20
5808;DHT22;2930;42.678;23.312;2023-04-01T18:37:53;8.20;92.40
5808;DHT22;2930;42.678;23.312;2023-04-01T18:40:36;8.10;92.60
5808;DHT22;2930;42.678;23.312;2023-04-01T18:46:19;8.00;92.70
5808;DHT22;2930;42.678;23.312;2023-04-01T18:49:01;8.00;92.20
5808;DHT22;2930;42.678;23.312;2023-04-01T18:51:43;8.10;91.90
5808;DHT22;2930;42.678;23.312;2023-04-01T18:54:22;8.10;91.90
5808;DHT22;2930;42.678;23.312;2023-04-01T18:56:49;8.10;92.30
5808;DHT22;2930;42.678;23.312;2023-04-01T18:59:26;8.10;92.30
5808;DHT22;2930;42.678;23.312;2023-04-01T19:05:01;8.20;92.00
5808;DHT22;2930;42.678;23.312;2023-04-01T19:15:34;8.20;91.80
5808;DHT22;2930;42.678;23.312;2023-04-01T19:18:41;8.20;91.40
5808;DHT22;2930;42.678;23.312;2023-04-01T19:21:21;8.30;90.10
5808;DHT22;2930;42.678;23.312;2023-04-01T19:26:46;8.40;88.90
5808;DHT22;2930;42.678;23.312;2023-04-01T19:35:15;8.50;87.90
5808;DHT22;2930;42.678;23.312;2023-04-01T19:37:51;8.50;87.80
5808;DHT22;2930;42.678;23.312;2023-04-01T19:46:31;8.40;87.90
5808;DHT22;2930;42.678;23.312;2023-04-01T19:54:35;8.30;87.40
5808;DHT22;2930;42.678;23.312;2023-04-01T20:05:40;8.40;87.80
5808;DHT22;2930;42.678;23.312;2023-04-01T20:08:10;8.40;87.00
5808;DHT22;2930;42.678;23.312;2023-04-01T20:19:45;8.50;86.10
5808;DHT22;2930;42.678;23.312;2023-04-01T20:22:53;8.50;86.10
5808;DHT22;2930;42.678;23.312;2023-04-01T20:25:23;8.50;85.60
5808;DHT22;2930;42.678;23.312;2023-04-01T20:33:13;8.50;85.40
5808;DHT22;2930;42.678;23.312;2023-04-01T20:39:19;8.60;84.60
5808;DHT22;2930;42.678;23.312;2023-04-01T20:48:16;8.60;84.00
5808;DHT22;2930;42.678;23.312;2023-04-01T20:50:58;8.50;83.60
5808;DHT22;2930;42.678;23.312;2023-04-01T21:06:53;8.40;83.30
5808;DHT22;2930;42.678;23.312;2023-04-01T21:17:29;8.50;82.60
5808;DHT22;2930;42.678;23.312;2023-04-01T21:26:23;8.60;82.60
5808;DHT22;2930;42.678;23.312;2023-04-01T22:05:40;8.70;82.40
5808;DHT22;2930;42.678;23.312;2023-04-01T22:08:39;8.70;82.50
5808;DHT22;2930;42.678;23.312;2023-04-01T22:14:05;8.60;83.00
5808;DHT22;2930;42.678;23.312;2023-04-01T22:16:58;8.40;83.40
5808;DHT22;2930;42.678;23.312;2023-04-01T22:24:49;8.30;83.60
5808;DHT22;2930;42.678;23.312;2023-04-01T22:27:44;8.20;83.70
5808;DHT22;2930;42.678;23.312;2023-04-01T22:32:50;8.10;82.80
5808;DHT22;2930;42.678;23.312;2023-04-01T22:41:05;8.20;82.80
5808;DHT22;2930;42.678;23.312;2023-04-01T22:43:43;8.20;82.40
5808;DHT22;2930;42.678;23.312;2023-04-01T22:48:47;8.10;82.50
5808;DHT22;2930;42.678;23.312;2023-04-01T22:51:40;8.20;82.30
5808;DHT22;2930;42.678;23.312;2023-04-01T23:00:11;8.20;81.60
5808;DHT22;2930;42.678;23.312;2023-04-01T23:02:45;8.20;81.10
5808;DHT22;2930;42.678;23.312;2023-04-01T23:05:17;8.20;80.90
5808;DHT22;2930;42.678;23.312;2023-04-01T23:13:12;8.40;80.10
5808;DHT22;2930;42.678;23.312;2023-04-01T23:15:38;8.40;80.10
5808;DHT22;2930;42.678;23.312;2023-04-01T23:18:27;8.40;80.20
5808;DHT22;2930;42.678;23.312;2023-04-01T23:21:18;8.40;80.30
5808;DHT22;2930;42.678;23.312;2023-04-01T23:29:14;8.40;80.60
5808;DHT22;2930;42.678;23.312;2023-04-01T23:31:44;8.40;80.20
5808;DHT22;2930;42.678;23.312;2023-04-01T23:36:44;8.40;80.20
5808;DHT22;2930;42.678;23.312;2023-04-01T23:39:36;8.40;80.40
5808;DHT22;2930;42.678;23.312;2023-04-01T23:44:52;8.40;80.20
5808;DHT22;2930;42.678;23.312;2023-04-01T23:47:33;8.30;79.70
5808;DHT22;2930;42.678;23.312;2023-04-01T23:50:09;8.30;79.80
5808;DHT22;2930;42.678;23.312;2023-04-01T23:52:43;8.50;79.40
5808;DHT22;2930;42.678;23.312;2023-04-01T23:57:35;8.40;79.10
